world map with KGOP marked

KGOP - Airport

This information may not be accurate or current and is not valid for navigation or flight planning. No warranty of fitness for any purpose is made or implied.

flag of Texasflag of United States

Donate via PayPal

Additional information is available on the NEW Great Circle Mapper

Location
City:  Gatesville, Texas, United States
Name:Gatesville Municipal Airport
ICAO:KGOP
FAA:GOP

Details
Type:Airport (Airfield)
Use:Public/Civil
Latitude:31°25'17"N (31.421276)
Longitude:97°47'49"W (-97.796967)
Datum:WGS 1984
Elevation:905 ft (276 m)
Runways:1
Longest:3400 × 60 ft (1036 × 18.5 m)

Time
Timezone:UTC+28:08 (DST+29:08)
Local Time:

Weather
METAR:KGOP  211735Z AUTO 16004KT 10SM CLR 24/16 A3012 RMK AO2

Related Locations
Nearby:
Farthest:RRG: 11021 mi / 17736 km
Plaine Corail, Rodrigues Island, MU

Find:

   beyond  
but within

Other Information
Maps:
Links:
Sources:

  

Sectional Chart

Flight Planning
at skyvector.com

 


Great Circle Mapper   Great Circle Mapper
Great Circle Mapper FAQ   Great Circle Mapper FAQ
  Karl's Home Page
KLSē   KLSē Home
   GC on Facebook
Airlines of the World   Airlines of the World
Donate via PayPal


Copyright © 2004-2014, Karl L. Swartz. All rights reserved.
All trademarks mentioned herein belong to their respective owners.

Please see credits for attribution and copyright information.

Karl Swartz <karl@kls2.com>
  Powered by FreeBSD
Valid HTML 4.01!
Labeled with ICRA
hCard Microformat
Geo Microformat